Time;durP1;ratioP1;P1;durP2;ratioP2;P2;SDS_P1;SDS_P2;PMS_P1;PMS_P2;Temp;Humidity;BMP_temperature;BMP_pressure;BME280_temperature;BME280_humidity;BME280_pressure;Samples;Min_cycle;Max_cycle;Signal;HPM_P1;HPM_P2
2022/09/14 00:01:28;;;;;;;;;;;14.50;99.90;;;;;;4950599;28;19949;-86
2022/09/14 00:03:55;;;;;;;;;;;14.40;99.90;;;;;;4969842;28;20508;-83
2022/09/14 00:06:21;;;;;;;;;;;14.40;99.90;;;;;;4951129;28;19930;-80
2022/09/14 00:08:55;;;;;;;;;;;14.40;99.90;;;;;;4965947;28;19930;-80
2022/09/14 00:11:22;;;;;;;;;;;14.40;99.90;;;;;;4963159;28;19929;-81
2022/09/14 00:13:48;;;;;;;;;;;14.40;99.90;;;;;;4950919;28;19934;-80
2022/09/14 00:16:15;;;;;;;;;;;14.40;99.90;;;;;;4951675;28;19926;-82
2022/09/14 00:18:59;;;;;;;;;;;14.40;99.90;;;;;;4973190;28;19992;-80
2022/09/14 00:21:25;;;;;;;;;;;14.40;99.90;;;;;;4946118;28;19973;-81
2022/09/14 00:23:51;;;;;;;;;;;14.40;99.90;;;;;;4969146;28;19980;-80
2022/09/14 00:26:19;;;;;;;;;;;14.40;99.90;;;;;;4970333;28;19965;-81
2022/09/14 00:28:46;;;;;;;;;;;14.30;99.90;;;;;;4968839;28;19930;-82
2022/09/14 00:31:12;;;;;;;;;;;14.30;99.90;;;;;;4960615;28;19933;-81
2022/09/14 00:33:40;;;;;;;;;;;14.30;99.90;;;;;;4969388;28;19930;-81
2022/09/14 00:36:07;;;;;;;;;;;14.30;99.90;;;;;;4959170;28;19930;-80
2022/09/14 00:38:34;;;;;;;;;;;14.30;99.90;;;;;;4939535;28;19945;-81
2022/09/14 00:41:03;;;;;;;;;;;14.30;99.90;;;;;;4970377;28;19941;-81
2022/09/14 00:43:29;;;;;;;;;;;14.30;99.90;;;;;;4950661;28;19926;-81
2022/09/14 00:45:58;;;;;;;;;;;14.30;99.90;;;;;;4959908;28;20020;-81
2022/09/14 00:48:27;;;;;;;;;;;14.30;99.90;;;;;;4968991;28;19929;-82
2022/09/14 00:50:53;;;;;;;;;;;14.40;99.90;;;;;;4954725;28;20404;-81
2022/09/14 00:53:19;;;;;;;;;;;14.40;99.90;;;;;;4954336;28;19932;-80
2022/09/14 00:55:45;;;;;;;;;;;14.40;99.90;;;;;;4955305;28;19937;-80
2022/09/14 00:58:11;;;;;;;;;;;14.40;99.90;;;;;;4951882;28;19926;-81
2022/09/14 01:00:36;;;;;;;;;;;14.40;99.90;;;;;;4932844;28;19934;-81
2022/09/14 01:03:02;;;;;;;;;;;14.30;99.90;;;;;;4953680;28;19937;-80
2022/09/14 01:05:36;;;;;;;;;;;14.30;99.90;;;;;;4952120;28;19975;-80
2022/09/14 01:08:05;;;;;;;;;;;14.30;99.90;;;;;;4947942;28;19930;-81
2022/09/14 01:10:31;;;;;;;;;;;14.30;99.90;;;;;;4957161;28;20305;-80
2022/09/14 01:13:04;;;;;;;;;;;14.30;99.90;;;;;;4954500;28;19930;-81
2022/09/14 01:18:56;;;;;;;;;;;14.30;99.90;;;;;;4988368;28;20348;-81
2022/09/14 01:21:24;;;;;;;;;;;14.30;99.90;;;;;;4953847;28;20016;-82
2022/09/14 01:24:11;;;;;;;;;;;14.40;99.90;;;;;;4959132;28;19948;-82
2022/09/14 01:26:47;;;;;;;;;;;14.40;99.90;;;;;;4953799;28;19930;-83
2022/09/14 01:29:16;;;;;;;;;;;14.40;99.90;;;;;;4955002;28;19980;-81
2022/09/14 01:31:41;;;;;;;;;;;14.40;99.90;;;;;;4952684;28;19945;-82
2022/09/14 01:34:19;;;;;;;;;;;14.50;99.90;;;;;;4966645;28;20497;-82
2022/09/14 01:37:04;;;;;;;;;;;14.50;99.90;;;;;;4966683;28;19977;-81
2022/09/14 01:39:31;;;;;;;;;;;14.60;99.90;;;;;;4954114;28;20516;-84
2022/09/14 01:41:57;;;;;;;;;;;14.50;99.90;;;;;;4954578;28;19934;-82
2022/09/14 01:44:26;;;;;;;;;;;14.60;99.90;;;;;;4969464;28;20488;-82
2022/09/14 01:46:58;;;;;;;;;;;14.60;99.90;;;;;;4954086;28;19926;-82
2022/09/14 01:49:31;;;;;;;;;;;14.60;99.90;;;;;;4969551;28;19929;-85
2022/09/14 01:52:14;;;;;;;;;;;14.60;99.90;;;;;;4968406;28;19926;-81
2022/09/14 01:54:40;;;;;;;;;;;14.70;99.90;;;;;;4968659;28;20013;-82
2022/09/14 01:57:11;;;;;;;;;;;14.70;99.90;;;;;;4944720;28;20009;-83
2022/09/14 01:59:41;;;;;;;;;;;14.60;99.90;;;;;;4944358;28;20539;-82
2022/09/14 02:02:08;;;;;;;;;;;14.60;99.90;;;;;;4951580;28;20489;-82
2022/09/14 02:08:10;;;;;;;;;;;14.70;99.90;;;;;;5053767;23;19991;-80
2022/09/14 02:10:36;;;;;;;;;;;14.70;99.90;;;;;;4963018;28;19925;-80
2022/09/14 02:13:02;;;;;;;;;;;14.20;99.90;;;;;;4987136;28;19932;-81
2022/09/14 02:15:28;;;;;;;;;;;14.70;99.90;;;;;;4972612;28;19941;-80
2022/09/14 02:17:59;;;;;;;;;;;14.70;99.90;;;;;;4973000;28;19944;-80
2022/09/14 02:20:37;;;;;;;;;;;14.80;99.90;;;;;;4972390;28;19926;-80
2022/09/14 02:23:04;;;;;;;;;;;14.70;99.90;;;;;;4989347;28;20699;-80
2022/09/14 02:25:30;;;;;;;;;;;14.80;99.90;;;;;;4990306;28;19929;-80
2022/09/14 02:27:56;;;;;;;;;;;14.80;99.90;;;;;;4984638;28;19933;-80
2022/09/14 02:30:22;;;;;;;;;;;14.80;99.90;;;;;;5001969;28;19925;-80
2022/09/14 02:33:02;;;;;;;;;;;14.80;99.90;;;;;;4990039;28;19926;-80
2022/09/14 02:35:33;;;;;;;;;;;14.80;99.90;;;;;;4971515;28;20008;-80
2022/09/14 02:38:19;;;;;;;;;;;14.80;99.90;;;;;;4988177;28;19932;-80
2022/09/14 02:40:52;;;;;;;;;;;14.80;99.90;;;;;;4986493;28;20442;-80
2022/09/14 02:43:26;;;;;;;;;;;14.80;99.90;;;;;;4982974;28;19925;-80
2022/09/14 02:46:05;;;;;;;;;;;14.80;99.90;;;;;;4977603;28;20335;-80
2022/09/14 02:48:31;;;;;;;;;;;14.80;99.90;;;;;;4973402;28;20086;-81
2022/09/14 02:51:08;;;;;;;;;;;14.80;99.90;;;;;;4979598;28;19932;-80
2022/09/14 02:53:52;;;;;;;;;;;14.80;99.90;;;;;;4977863;28;19980;-81
2022/09/14 02:56:19;;;;;;;;;;;14.80;99.90;;;;;;4986889;28;19936;-81
2022/09/14 02:58:46;;;;;;;;;;;14.80;99.90;;;;;;4984219;28;19931;-80
2022/09/14 03:01:13;;;;;;;;;;;14.80;99.90;;;;;;4973367;28;19937;-81
2022/09/14 03:03:39;;;;;;;;;;;14.80;99.90;;;;;;4969281;28;20040;-81
2022/09/14 03:06:05;;;;;;;;;;;14.80;99.90;;;;;;4976064;28;20538;-80
2022/09/14 03:08:31;;;;;;;;;;;14.80;99.90;;;;;;4994757;28;19925;-81
2022/09/14 03:10:57;;;;;;;;;;;14.80;99.90;;;;;;4971854;28;20544;-81
2022/09/14 03:13:24;;;;;;;;;;;14.80;99.90;;;;;;4978984;28;19964;-82
2022/09/14 03:15:50;;;;;;;;;;;14.80;99.90;;;;;;4993824;28;20031;-81
2022/09/14 03:18:16;;;;;;;;;;;14.80;99.90;;;;;;4990804;28;20012;-80
2022/09/14 03:20:42;;;;;;;;;;;14.80;99.90;;;;;;4973874;28;19952;-81
2022/09/14 03:23:09;;;;;;;;;;;14.80;99.90;;;;;;4987335;28;19925;-80
2022/09/14 03:25:40;;;;;;;;;;;14.80;99.90;;;;;;4993835;28;19933;-80
2022/09/14 03:28:07;;;;;;;;;;;14.80;99.90;;;;;;4991158;28;20172;-81
2022/09/14 03:30:33;;;;;;;;;;;14.90;99.90;;;;;;4996580;28;19925;-80
2022/09/14 03:32:59;;;;;;;;;;;14.80;99.90;;;;;;4991933;28;19929;-81
2022/09/14 03:35:26;;;;;;;;;;;14.80;99.90;;;;;;4989881;28;19936;-80
2022/09/14 03:37:52;;;;;;;;;;;14.90;99.90;;;;;;4990657;28;19924;-80
2022/09/14 03:40:18;;;;;;;;;;;14.90;99.90;;;;;;4994914;28;20301;-80
2022/09/14 03:42:45;;;;;;;;;;;14.90;99.90;;;;;;4960403;28;19929;-81
2022/09/14 03:45:11;;;;;;;;;;;14.80;99.90;;;;;;4974207;28;19933;-80
2022/09/14 03:47:37;;;;;;;;;;;14.80;99.90;;;;;;4991834;28;20007;-81
2022/09/14 03:50:03;;;;;;;;;;;14.80;99.90;;;;;;4975660;28;19937;-81
2022/09/14 03:52:29;;;;;;;;;;;14.90;99.90;;;;;;5005079;28;20550;-80
2022/09/14 03:54:55;;;;;;;;;;;14.90;99.90;;;;;;4976929;28;19929;-81
2022/09/14 03:57:20;;;;;;;;;;;14.90;99.90;;;;;;4970619;28;19929;-80
2022/09/14 03:59:46;;;;;;;;;;;14.90;99.90;;;;;;4989548;28;19921;-80
2022/09/14 04:02:12;;;;;;;;;;;14.90;99.90;;;;;;4975652;28;19929;-80
2022/09/14 04:04:38;;;;;;;;;;;14.90;99.90;;;;;;4992091;28;19948;-81
2022/09/14 04:07:04;;;;;;;;;;;14.90;99.90;;;;;;4975050;28;20028;-80
2022/09/14 04:09:30;;;;;;;;;;;14.90;99.90;;;;;;4975804;28;20470;-81
2022/09/14 04:11:56;;;;;;;;;;;14.90;99.90;;;;;;5006014;28;19973;-79
2022/09/14 04:14:22;;;;;;;;;;;14.90;99.90;;;;;;4985089;28;20016;-80
2022/09/14 04:16:48;;;;;;;;;;;14.90;99.90;;;;;;4997602;28;20387;-80
2022/09/14 04:19:14;;;;;;;;;;;14.90;99.90;;;;;;4958091;28;20009;-81
2022/09/14 04:21:40;;;;;;;;;;;14.90;99.90;;;;;;4989122;28;20343;-80
2022/09/14 04:24:08;;;;;;;;;;;14.90;99.90;;;;;;4975702;28;19925;-79
2022/09/14 04:26:34;;;;;;;;;;;14.90;99.90;;;;;;4977273;28;19931;-80
2022/09/14 04:29:00;;;;;;;;;;;14.80;99.90;;;;;;4989691;28;20053;-80
2022/09/14 04:31:26;;;;;;;;;;;14.90;99.90;;;;;;4974492;28;19956;-81
2022/09/14 04:33:53;;;;;;;;;;;14.80;99.90;;;;;;4967775;28;20312;-80
2022/09/14 04:36:21;;;;;;;;;;;14.80;99.90;;;;;;4986422;28;19955;-81
2022/09/14 04:38:47;;;;;;;;;;;14.80;99.90;;;;;;4972170;28;19926;-81
2022/09/14 04:41:14;;;;;;;;;;;14.80;99.90;;;;;;4972854;28;19992;-81
2022/09/14 04:43:42;;;;;;;;;;;14.80;99.90;;;;;;5005206;28;19929;-81
2022/09/14 04:46:13;;;;;;;;;;;14.80;99.90;;;;;;4986333;28;19925;-81
2022/09/14 04:48:38;;;;;;;;;;;14.80;99.90;;;;;;4963185;28;19937;-82
2022/09/14 04:51:06;;;;;;;;;;;14.80;99.90;;;;;;5001874;28;19929;-80
2022/09/14 04:53:33;;;;;;;;;;;14.80;99.90;;;;;;4973610;28;19929;-81
2022/09/14 04:55:59;;;;;;;;;;;14.80;99.90;;;;;;4969154;28;19930;-81
2022/09/14 04:58:27;;;;;;;;;;;14.80;99.90;;;;;;4986351;28;20613;-79
2022/09/14 05:00:54;;;;;;;;;;;14.90;99.90;;;;;;4996770;28;20400;-80
2022/09/14 05:03:20;;;;;;;;;;;14.80;99.90;;;;;;4990594;28;19929;-80
2022/09/14 05:05:46;;;;;;;;;;;14.90;99.90;;;;;;4994161;28;20296;-80
2022/09/14 05:08:12;;;;;;;;;;;14.90;99.90;;;;;;4995976;28;19925;-80
2022/09/14 05:10:38;;;;;;;;;;;14.90;99.90;;;;;;5013887;28;20020;-80
2022/09/14 05:13:03;;;;;;;;;;;14.90;99.90;;;;;;4973024;28;19925;-80
2022/09/14 05:15:30;;;;;;;;;;;14.90;99.90;;;;;;4985090;28;19988;-80
2022/09/14 05:17:56;;;;;;;;;;;14.90;99.90;;;;;;4993248;28;19933;-81
2022/09/14 05:20:22;;;;;;;;;;;14.90;99.90;;;;;;4994079;28;19933;-80
2022/09/14 05:22:48;;;;;;;;;;;14.90;99.90;;;;;;4999531;28;19933;-80
2022/09/14 05:25:14;;;;;;;;;;;14.90;99.90;;;;;;4988488;28;19976;-79
2022/09/14 05:27:40;;;;;;;;;;;14.90;99.90;;;;;;4957991;28;20199;-79
2022/09/14 05:30:06;;;;;;;;;;;14.90;99.90;;;;;;5000315;28;20442;-79
2022/09/14 05:32:32;;;;;;;;;;;14.90;99.90;;;;;;4984182;28;20543;-83
2022/09/14 05:34:58;;;;;;;;;;;14.90;99.90;;;;;;4969739;28;19929;-81
2022/09/14 05:37:24;;;;;;;;;;;14.90;99.90;;;;;;4979708;28;19925;-81
2022/09/14 05:39:50;;;;;;;;;;;14.90;99.90;;;;;;4987306;28;19976;-80
2022/09/14 05:42:15;;;;;;;;;;;14.90;99.90;;;;;;4976885;28;19930;-80
2022/09/14 05:44:42;;;;;;;;;;;14.90;99.90;;;;;;4985602;28;20514;-80
2022/09/14 05:47:08;;;;;;;;;;;14.90;99.90;;;;;;4982687;28;19930;-79
2022/09/14 05:49:34;;;;;;;;;;;15.00;99.90;;;;;;4985791;28;19925;-80
2022/09/14 05:52:00;;;;;;;;;;;15.00;99.90;;;;;;4982967;28;19935;-81
2022/09/14 05:54:26;;;;;;;;;;;15.00;99.90;;;;;;4979879;28;20364;-81
2022/09/14 05:56:52;;;;;;;;;;;15.00;99.90;;;;;;4976753;28;19976;-80
2022/09/14 05:59:17;;;;;;;;;;;15.10;99.90;;;;;;4975814;28;19928;-80
2022/09/14 06:01:43;;;;;;;;;;;15.10;99.90;;;;;;4976954;28;19939;-80
2022/09/14 06:04:10;;;;;;;;;;;15.10;99.90;;;;;;4998265;28;19926;-80
2022/09/14 06:06:36;;;;;;;;;;;15.10;99.90;;;;;;4982629;28;19922;-80
2022/09/14 06:09:02;;;;;;;;;;;15.10;99.90;;;;;;4973021;28;19933;-80
2022/09/14 06:11:29;;;;;;;;;;;15.10;99.90;;;;;;4966118;28;20187;-80
2022/09/14 06:13:55;;;;;;;;;;;15.20;99.90;;;;;;4983049;28;19976;-83
2022/09/14 06:16:21;;;;;;;;;;;15.20;99.90;;;;;;4983505;28;19929;-80
2022/09/14 06:18:48;;;;;;;;;;;15.20;99.90;;;;;;4970175;28;19930;-80
2022/09/14 06:21:15;;;;;;;;;;;15.20;99.90;;;;;;4978484;28;19945;-82
2022/09/14 06:23:42;;;;;;;;;;;15.20;99.90;;;;;;4989254;28;19972;-79
2022/09/14 06:26:08;;;;;;;;;;;15.30;99.90;;;;;;4982645;28;19925;-79
2022/09/14 06:28:34;;;;;;;;;;;15.30;99.90;;;;;;4995698;28;19933;-80
2022/09/14 06:31:02;;;;;;;;;;;15.30;99.90;;;;;;4978072;28;19977;-80
2022/09/14 06:33:27;;;;;;;;;;;15.40;99.90;;;;;;4989961;28;19929;-80
2022/09/14 06:35:54;;;;;;;;;;;15.40;99.90;;;;;;4957237;28;19940;-83
2022/09/14 06:38:20;;;;;;;;;;;15.40;99.90;;;;;;4986630;28;20020;-80
2022/09/14 06:40:51;;;;;;;;;;;15.40;99.90;;;;;;4988345;28;19932;-78
2022/09/14 06:43:16;;;;;;;;;;;15.40;99.90;;;;;;4974315;28;19926;-79
2022/09/14 06:45:42;;;;;;;;;;;15.50;99.90;;;;;;4987032;28;20016;-80
2022/09/14 06:48:08;;;;;;;;;;;15.50;99.90;;;;;;5008447;28;20016;-80
2022/09/14 06:50:34;;;;;;;;;;;15.50;99.90;;;;;;4990645;28;19926;-78
2022/09/14 06:53:00;;;;;;;;;;;15.60;99.90;;;;;;4998700;28;20040;-79
2022/09/14 06:55:26;;;;;;;;;;;15.60;99.90;;;;;;4975878;28;19956;-79
2022/09/14 06:57:52;;;;;;;;;;;15.60;99.90;;;;;;4990592;28;20008;-79
2022/09/14 07:00:18;;;;;;;;;;;15.70;99.90;;;;;;4992794;28;19925;-79
2022/09/14 07:02:43;;;;;;;;;;;15.70;99.90;;;;;;4966270;28;20381;-79
2022/09/14 07:05:09;;;;;;;;;;;15.80;99.90;;;;;;4970562;28;19957;-79
2022/09/14 07:07:35;;;;;;;;;;;15.80;99.90;;;;;;4977778;28;19928;-79
2022/09/14 07:10:01;;;;;;;;;;;15.80;99.90;;;;;;4962308;28;19933;-80
2022/09/14 07:12:27;;;;;;;;;;;15.80;99.90;;;;;;4976498;28;19925;-80
2022/09/14 07:14:53;;;;;;;;;;;15.90;99.90;;;;;;4986111;28;19925;-79
2022/09/14 07:17:19;;;;;;;;;;;15.90;99.90;;;;;;4956928;28;19933;-79
2022/09/14 07:19:45;;;;;;;;;;;15.90;99.90;;;;;;4960360;28;19936;-79
2022/09/14 07:22:10;;;;;;;;;;;15.90;99.90;;;;;;4997180;28;19925;-78
2022/09/14 07:24:36;;;;;;;;;;;16.00;99.90;;;;;;4976159;28;19929;-79
2022/09/14 07:27:03;;;;;;;;;;;16.00;99.90;;;;;;4982174;28;19925;-78
2022/09/14 07:29:28;;;;;;;;;;;16.00;99.90;;;;;;4972168;28;19934;-80
2022/09/14 07:31:54;;;;;;;;;;;16.00;99.90;;;;;;4970074;28;19976;-79
2022/09/14 07:34:21;;;;;;;;;;;16.10;99.90;;;;;;4975474;28;19941;-79
2022/09/14 07:36:47;;;;;;;;;;;16.10;99.90;;;;;;4955280;28;20041;-80
2022/09/14 07:39:14;;;;;;;;;;;16.20;99.90;;;;;;4970706;28;20023;-80
2022/09/14 07:41:40;;;;;;;;;;;16.30;99.90;;;;;;4990474;28;19937;-79
2022/09/14 07:44:06;;;;;;;;;;;16.30;99.90;;;;;;4973625;28;19937;-80
2022/09/14 07:46:37;;;;;;;;;;;16.30;99.90;;;;;;4975540;28;19968;-79
2022/09/14 07:49:03;;;;;;;;;;;16.30;99.90;;;;;;4970005;28;20001;-79
2022/09/14 07:51:30;;;;;;;;;;;16.30;99.90;;;;;;4970407;28;20419;-80
2022/09/14 07:54:00;;;;;;;;;;;16.40;99.90;;;;;;4987185;28;19926;-82
2022/09/14 07:56:26;;;;;;;;;;;16.40;99.90;;;;;;4983749;28;19925;-81
2022/09/14 07:58:53;;;;;;;;;;;16.40;99.90;;;;;;4974914;28;20521;-80
2022/09/14 08:01:19;;;;;;;;;;;16.60;99.90;;;;;;4962203;28;19929;-80
2022/09/14 08:03:45;;;;;;;;;;;16.60;99.90;;;;;;4963075;28;19936;-81
2022/09/14 08:06:21;;;;;;;;;;;16.70;99.90;;;;;;4998475;28;19922;-80
2022/09/14 08:08:48;;;;;;;;;;;16.70;99.90;;;;;;5003794;28;20003;-80
2022/09/14 08:11:19;;;;;;;;;;;16.80;99.90;;;;;;5003732;28;19933;-81
2022/09/14 08:13:49;;;;;;;;;;;16.90;99.90;;;;;;4974566;28;19935;-81
2022/09/14 08:16:17;;;;;;;;;;;17.10;99.90;;;;;;4985626;28;20308;-83
2022/09/14 08:18:43;;;;;;;;;;;17.20;99.90;;;;;;4972064;28;20308;-81
2022/09/14 08:21:10;;;;;;;;;;;17.20;99.90;;;;;;4979110;28;19984;-79
2022/09/14 08:23:37;;;;;;;;;;;17.30;99.90;;;;;;4995893;28;19926;-82
2022/09/14 08:26:13;;;;;;;;;;;17.30;99.90;;;;;;4980304;28;19932;-80
2022/09/14 08:28:39;;;;;;;;;;;;;;;;;;4982170;28;19967;-82
2022/09/14 08:31:06;;;;;;;;;;;17.40;99.90;;;;;;4976441;28;20016;-81
2022/09/14 08:33:33;;;;;;;;;;;17.50;99.90;;;;;;4972225;28;19982;-80
2022/09/14 08:35:59;;;;;;;;;;;17.50;99.90;;;;;;4973577;28;20499;-80
2022/09/14 08:38:25;;;;;;;;;;;17.50;99.90;;;;;;4979661;28;19936;-82
2022/09/14 08:40:51;;;;;;;;;;;17.70;99.90;;;;;;4993934;28;20004;-81
2022/09/14 08:43:18;;;;;;;;;;;17.90;99.90;;;;;;4974704;28;20462;-82
2022/09/14 08:45:48;;;;;;;;;;;18.20;99.90;;;;;;4997580;28;19925;-81
2022/09/14 08:48:21;;;;;;;;;;;18.50;99.90;;;;;;4992265;28;19990;-80
2022/09/14 08:50:52;;;;;;;;;;;18.80;99.90;;;;;;4981042;28;20008;-80
2022/09/14 08:53:21;;;;;;;;;;;18.80;99.90;;;;;;4990572;28;19929;-80
2022/09/14 08:55:53;;;;;;;;;;;18.90;99.90;;;;;;4976593;28;19936;-79
2022/09/14 08:58:19;;;;;;;;;;;18.80;99.90;;;;;;4978330;28;20024;-83
2022/09/14 09:01:03;;;;;;;;;;;18.90;99.90;;;;;;4975850;28;20432;-80
2022/09/14 09:03:32;;;;;;;;;;;19.00;99.90;;;;;;4995621;28;19936;-80
2022/09/14 09:06:10;;;;;;;;;;;19.10;99.90;;;;;;4997837;28;19925;-81
2022/09/14 09:08:48;;;;;;;;;;;19.60;99.90;;;;;;4980576;28;19932;-78
2022/09/14 09:11:17;;;;;;;;;;;19.60;99.90;;;;;;4976681;28;20739;-80
2022/09/14 09:13:44;;;;;;;;;;;19.90;99.90;;;;;;4982964;28;19933;-79
2022/09/14 09:16:10;;;;;;;;;;;;;;;;;;4973090;28;20242;-79
2022/09/14 09:18:46;;;;;;;;;;;20.20;99.90;;;;;;4993456;28;19936;-81
2022/09/14 09:21:12;;;;;;;;;;;20.10;99.90;;;;;;4972215;28;20000;-82
2022/09/14 09:23:38;;;;;;;;;;;19.90;99.90;;;;;;4974100;28;20515;-81
2022/09/14 09:26:06;;;;;;;;;;;19.70;99.90;;;;;;4992924;28;19930;-81
2022/09/14 09:28:50;;;;;;;;;;;19.40;99.90;;;;;;4974387;28;19930;-81
2022/09/14 09:31:17;;;;;;;;;;;19.30;99.90;;;;;;4992092;28;20016;-80
2022/09/14 09:33:45;;;;;;;;;;;19.10;99.90;;;;;;4983311;28;19937;-81
2022/09/14 09:36:12;;;;;;;;;;;19.00;99.90;;;;;;5011625;28;19984;-80
2022/09/14 09:38:38;;;;;;;;;;;18.80;99.90;;;;;;4982022;28;19922;-77
2022/09/14 09:41:06;;;;;;;;;;;18.70;99.90;;;;;;4992122;28;20057;-80
2022/09/14 09:43:32;;;;;;;;;;;18.60;99.90;;;;;;4968266;28;19929;-80
2022/09/14 09:45:58;;;;;;;;;;;;;;;;;;4990049;28;19929;-79
2022/09/14 09:48:51;;;;;;;;;;;18.40;99.90;;;;;;4982758;28;19921;-77
2022/09/14 09:51:25;;;;;;;;;;;18.30;99.90;;;;;;4988710;28;19931;-78
2022/09/14 09:54:06;;;;;;;;;;;18.30;99.90;;;;;;5003268;28;19956;-79
2022/09/14 09:56:35;;;;;;;;;;;18.20;99.90;;;;;;4986366;28;20028;-81
2022/09/14 09:59:01;;;;;;;;;;;18.30;99.90;;;;;;4992393;28;20296;-80
2022/09/14 10:01:28;;;;;;;;;;;18.40;99.90;;;;;;4977940;28;20317;-80
2022/09/14 10:04:05;;;;;;;;;;;18.40;99.90;;;;;;4965158;28;19926;-80
2022/09/14 10:06:39;;;;;;;;;;;18.40;99.90;;;;;;4975459;28;19936;-80
2022/09/14 10:09:11;;;;;;;;;;;18.50;99.90;;;;;;4983147;28;20360;-81
2022/09/14 10:11:37;;;;;;;;;;;18.60;99.90;;;;;;4965967;28;19938;-80
2022/09/14 10:14:04;;;;;;;;;;;18.70;99.90;;;;;;4953187;28;19930;-80
2022/09/14 10:16:39;;;;;;;;;;;18.70;99.90;;;;;;4978256;28;19929;-80
2022/09/14 10:19:14;;;;;;;;;;;18.90;99.90;;;;;;4983302;28;19926;-80
2022/09/14 10:21:59;;;;;;;;;;;19.00;99.90;;;;;;4972539;28;19932;-78
2022/09/14 10:24:26;;;;;;;;;;;19.00;99.90;;;;;;4990553;28;19929;-80
2022/09/14 10:26:51;;;;;;;;;;;19.00;99.90;;;;;;4976890;28;19925;-79
2022/09/14 10:29:29;;;;;;;;;;;19.00;99.90;;;;;;4954398;28;19932;-80
2022/09/14 10:32:24;;;;;;;;;;;19.00;99.90;;;;;;4996131;28;19917;-81
2022/09/14 10:35:13;;;;;;;;;;;19.00;99.90;;;;;;5004186;28;19980;-82
2022/09/14 10:37:52;;;;;;;;;;;19.00;99.90;;;;;;5007045;28;19921;-82
2022/09/14 10:40:52;;;;;;;;;;;19.00;99.90;;;;;;4991636;28;19922;-82
2022/09/14 10:43:21;;;;;;;;;;;19.00;99.90;;;;;;4983475;28;20004;-80
2022/09/14 10:45:56;;;;;;;;;;;19.00;99.90;;;;;;4984575;28;19921;-82
2022/09/14 10:48:46;;;;;;;;;;;19.10;99.90;;;;;;4989296;28;19933;-82
2022/09/14 10:51:25;;;;;;;;;;;19.10;99.90;;;;;;4972687;28;19925;-82
2022/09/14 10:53:55;;;;;;;;;;;19.10;99.90;;;;;;4974089;28;19926;-82
2022/09/14 10:56:39;;;;;;;;;;;19.10;99.90;;;;;;4990048;28;19928;-82
2022/09/14 10:59:07;;;;;;;;;;;19.10;99.90;;;;;;4991954;28;19929;-82
2022/09/14 11:02:05;;;;;;;;;;;19.10;99.90;;;;;;4981698;28;19932;-82
2022/09/14 11:04:44;;;;;;;;;;;19.10;99.90;;;;;;4903341;28;19930;-81
2022/09/14 11:07:21;;;;;;;;;;;19.20;99.90;;;;;;4989231;28;19929;-81
2022/09/14 11:09:55;;;;;;;;;;;19.30;99.90;;;;;;4988570;28;19976;-80
2022/09/14 11:12:34;;;;;;;;;;;19.30;99.90;;;;;;4983952;28;19969;-79
2022/09/14 11:15:07;;;;;;;;;;;19.40;99.90;;;;;;4968696;28;19929;-81
2022/09/14 11:17:51;;;;;;;;;;;19.30;99.90;;;;;;4974649;28;20008;-81
2022/09/14 11:20:25;;;;;;;;;;;19.30;99.90;;;;;;5001345;28;20004;-81
2022/09/14 11:22:57;;;;;;;;;;;19.30;99.90;;;;;;4964140;28;20031;-82
2022/09/14 11:25:26;;;;;;;;;;;19.50;99.90;;;;;;4972859;28;19926;-80
2022/09/14 11:27:56;;;;;;;;;;;19.60;99.90;;;;;;4977817;28;19926;-81
2022/09/14 11:30:23;;;;;;;;;;;19.60;99.90;;;;;;4963561;28;19932;-80
2022/09/14 11:32:56;;;;;;;;;;;19.40;99.90;;;;;;4982584;28;20006;-81
2022/09/14 11:35:29;;;;;;;;;;;19.40;99.90;;;;;;4958451;28;19985;-80
2022/09/14 11:38:01;;;;;;;;;;;19.40;99.90;;;;;;4988146;28;19910;-81
2022/09/14 11:40:33;;;;;;;;;;;19.40;99.90;;;;;;4990541;28;19934;-79
2022/09/14 11:43:08;;;;;;;;;;;19.30;99.90;;;;;;4971807;28;19936;-81
2022/09/14 11:46:00;;;;;;;;;;;19.30;99.90;;;;;;4983470;28;19937;-85
2022/09/14 11:48:39;;;;;;;;;;;19.30;99.90;;;;;;4959313;28;19930;-83
2022/09/14 11:51:07;;;;;;;;;;;19.40;99.90;;;;;;4967094;28;19933;-85
2022/09/14 11:53:34;;;;;;;;;;;19.50;99.90;;;;;;4963096;28;19925;-80
2022/09/14 11:56:00;;;;;;;;;;;19.50;99.90;;;;;;4969441;28;20481;-84
2022/09/14 11:58:28;;;;;;;;;;;;;;;;;;4962995;28;19926;-85
2022/09/14 12:01:02;;;;;;;;;;;19.70;99.90;;;;;;4970041;28;19941;-83
2022/09/14 12:03:45;;;;;;;;;;;19.70;99.90;;;;;;4963018;28;19929;-83
2022/09/14 12:06:30;;;;;;;;;;;19.80;99.90;;;;;;4986571;28;19926;-86
2022/09/14 12:09:20;;;;;;;;;;;19.90;99.90;;;;;;4970020;28;19930;-85
2022/09/14 12:11:48;;;;;;;;;;;19.90;99.90;;;;;;4976497;28;21333;-82
2022/09/14 12:14:34;;;;;;;;;;;20.00;99.90;;;;;;4968145;28;20561;-86
2022/09/14 12:17:19;;;;;;;;;;;20.00;99.90;;;;;;4969934;28;20000;-81
2022/09/14 12:19:46;;;;;;;;;;;20.00;99.90;;;;;;4973355;28;19929;-82
2022/09/14 12:22:27;;;;;;;;;;;20.10;99.90;;;;;;4993303;28;20008;-81
2022/09/14 12:25:00;;;;;;;;;;;20.10;99.90;;;;;;4983809;28;20370;-80
2022/09/14 12:27:28;;;;;;;;;;;20.00;99.90;;;;;;4988843;28;20528;-85
2022/09/14 12:29:54;;;;;;;;;;;20.00;99.90;;;;;;4975654;28;20007;-84
2022/09/14 12:32:25;;;;;;;;;;;19.90;99.90;;;;;;4962924;28;19930;-82
2022/09/14 12:35:20;;;;;;;;;;;19.90;99.90;;;;;;4973534;28;19930;-82
2022/09/14 12:37:46;;;;;;;;;;;19.80;99.90;;;;;;4965375;28;20039;-82
2022/09/14 12:40:23;;;;;;;;;;;19.80;99.90;;;;;;4966036;28;20056;-81
2022/09/14 12:42:49;;;;;;;;;;;19.80;99.90;;;;;;4983843;28;20020;-82
2022/09/14 12:45:33;;;;;;;;;;;19.90;99.90;;;;;;4992909;28;20020;-81
2022/09/14 12:47:59;;;;;;;;;;;19.90;99.90;;;;;;4972475;28;19933;-81
2022/09/14 12:50:27;;;;;;;;;;;19.90;99.90;;;;;;4985335;28;19929;-78
2022/09/14 12:53:02;;;;;;;;;;;19.80;99.90;;;;;;4970514;28;19930;-81
2022/09/14 12:55:48;;;;;;;;;;;19.70;99.90;;;;;;4988033;28;20331;-82
2022/09/14 12:58:25;;;;;;;;;;;19.70;99.90;;;;;;4980993;28;20040;-77
2022/09/14 13:01:16;;;;;;;;;;;19.70;99.90;;;;;;4986558;28;19941;-80
2022/09/14 13:03:45;;;;;;;;;;;19.60;99.90;;;;;;4993484;28;20399;-79
2022/09/14 13:06:11;;;;;;;;;;;19.40;99.90;;;;;;4972915;28;19932;-80
2022/09/14 13:08:38;;;;;;;;;;;19.20;99.90;;;;;;4993126;28;20411;-80
2022/09/14 13:11:05;;;;;;;;;;;19.10;99.90;;;;;;4987908;28;19936;-80
2022/09/14 13:13:32;;;;;;;;;;;19.00;99.90;;;;;;4971704;28;19944;-80
2022/09/14 13:15:59;;;;;;;;;;;19.00;99.90;;;;;;4988550;28;19930;-80
2022/09/14 13:18:30;;;;;;;;;;;18.90;99.90;;;;;;4988837;28;19929;-79
2022/09/14 13:20:57;;;;;;;;;;;18.90;99.90;;;;;;4984499;28;20008;-79
2022/09/14 13:23:28;;;;;;;;;;;18.90;99.90;;;;;;4982243;28;20265;-82
2022/09/14 13:25:54;;;;;;;;;;;18.90;99.90;;;;;;4961373;28;19933;-80
2022/09/14 13:28:22;;;;;;;;;;;18.90;99.90;;;;;;4969729;28;19929;-79
2022/09/14 13:30:55;;;;;;;;;;;18.80;99.90;;;;;;5003457;28;19929;-84
2022/09/14 13:33:22;;;;;;;;;;;18.80;99.90;;;;;;4986965;28;19932;-80
2022/09/14 13:35:49;;;;;;;;;;;18.80;99.90;;;;;;4988356;28;19930;-82
2022/09/14 13:38:22;;;;;;;;;;;18.70;99.90;;;;;;4987923;28;20038;-79
2022/09/14 13:40:58;;;;;;;;;;;18.70;99.90;;;;;;4980311;28;20463;-78
2022/09/14 13:43:30;;;;;;;;;;;18.60;99.90;;;;;;4962795;28;19925;-84
2022/09/14 13:45:56;;;;;;;;;;;18.60;99.90;;;;;;4977965;28;19939;-81
2022/09/14 13:48:24;;;;;;;;;;;18.60;99.90;;;;;;4966240;28;19925;-83
2022/09/14 13:50:50;;;;;;;;;;;18.70;99.90;;;;;;4966777;28;20003;-84
2022/09/14 13:53:36;;;;;;;;;;;18.80;99.90;;;;;;4976055;28;20621;-79
2022/09/14 13:56:21;;;;;;;;;;;19.00;99.90;;;;;;4967483;28;19925;-81
2022/09/14 13:59:10;;;;;;;;;;;19.10;99.90;;;;;;4989186;28;20033;-84
2022/09/14 14:02:02;;;;;;;;;;;19.10;99.90;;;;;;4960639;28;19983;-80
2022/09/14 14:04:33;;;;;;;;;;;19.10;99.90;;;;;;4963733;28;19933;-81
2022/09/14 14:07:16;;;;;;;;;;;19.00;99.90;;;;;;4975238;28;19930;-82
2022/09/14 14:09:52;;;;;;;;;;;19.00;99.90;;;;;;4966921;28;19968;-80
2022/09/14 14:12:33;;;;;;;;;;;19.00;99.90;;;;;;4970539;28;20309;-90
2022/09/14 14:15:00;;;;;;;;;;;19.00;99.90;;;;;;4971477;28;20027;-81
2022/09/14 14:17:35;;;;;;;;;;;19.00;99.90;;;;;;4972380;28;19933;-82
2022/09/14 14:23:05;;;;;;;;;;;19.00;99.90;;;;;;4985760;28;19933;-82
2022/09/14 14:25:32;;;;;;;;;;;18.90;99.90;;;;;;4980623;28;19980;-84
2022/09/14 14:28:00;;;;;;;;;;;18.90;99.90;;;;;;4986462;28;19956;-87
2022/09/14 14:30:27;;;;;;;;;;;18.80;99.90;;;;;;4972307;28;19929;-81
2022/09/14 14:32:54;;;;;;;;;;;18.80;99.90;;;;;;4989095;28;19987;-84
2022/09/14 14:35:21;;;;;;;;;;;18.80;99.90;;;;;;4973417;28;19971;-89
2022/09/14 14:37:47;;;;;;;;;;;18.70;99.90;;;;;;4983206;28;20289;-83
2022/09/14 14:40:14;;;;;;;;;;;18.70;99.90;;;;;;4970299;28;19930;-82
2022/09/14 14:42:40;;;;;;;;;;;18.70;99.90;;;;;;4962179;28;20015;-83
2022/09/14 14:45:12;;;;;;;;;;;18.70;99.90;;;;;;4979946;28;19945;-81